createdAt,value
2018-09-24T00:00:07.863Z,21.79
2018-09-24T00:02:37.241Z,21.85
2018-09-24T00:05:06.329Z,21.81
2018-09-24T00:07:35.752Z,21.70
2018-09-24T00:10:04.893Z,21.71
2018-09-24T00:12:33.942Z,21.59
2018-09-24T00:15:03.023Z,21.48
2018-09-24T00:17:32.067Z,21.52
2018-09-24T00:20:01.130Z,21.48
2018-09-24T00:22:31.261Z,21.62
2018-09-24T00:25:00.276Z,21.64
2018-09-24T00:27:29.528Z,21.65
2018-09-24T00:29:58.647Z,21.59
2018-09-24T00:32:27.699Z,21.47
2018-09-24T00:34:56.759Z,21.42
2018-09-24T00:37:26.167Z,21.35
2018-09-24T00:39:55.203Z,21.37
2018-09-24T00:42:24.217Z,21.51
2018-09-24T00:44:54.329Z,21.52
2018-09-24T00:47:23.417Z,21.49
2018-09-24T00:49:52.912Z,21.32
2018-09-24T00:52:21.978Z,21.45
2018-09-24T00:54:51.033Z,21.46
2018-09-24T00:57:20.066Z,21.59
2018-09-24T00:59:49.402Z,21.65
2018-09-24T01:02:18.442Z,21.83
2018-09-24T01:04:47.469Z,21.51
2018-09-24T01:07:16.560Z,21.21
2018-09-24T01:09:46.589Z,21.31
2018-09-24T01:12:15.671Z,21.30
2018-09-24T01:14:45.132Z,21.40
2018-09-24T01:17:14.153Z,21.53
2018-09-24T01:19:43.193Z,21.58
2018-09-24T01:22:12.272Z,21.60
2018-09-24T01:24:41.301Z,21.72
2018-09-24T01:27:10.313Z,21.75
2018-09-24T01:29:39.719Z,21.72
2018-09-24T01:32:08.752Z,21.75
2018-09-24T01:34:37.780Z,21.60
2018-09-24T01:37:07.361Z,21.62
2018-09-24T01:39:36.385Z,21.53
2018-09-24T01:42:05.449Z,21.45
2018-09-24T01:44:35.235Z,21.41
2018-09-24T01:47:04.276Z,21.41
2018-09-24T01:49:33.286Z,21.36
2018-09-24T01:52:02.440Z,21.01
2018-09-24T01:54:31.681Z,21.00
2018-09-24T01:57:00.738Z,21.12
2018-09-24T01:59:30.075Z,20.80
2018-09-24T02:01:59.128Z,20.78
2018-09-24T02:04:28.173Z,20.53
2018-09-24T02:07:03.444Z,20.54
2018-09-24T02:09:32.938Z,20.63
2018-09-24T02:12:06.698Z,20.65
2018-09-24T02:14:36.059Z,20.85
2018-09-24T02:17:05.162Z,20.83
2018-09-24T02:19:35.982Z,21.01
2018-09-24T02:22:05.987Z,20.93
2018-09-24T02:24:35.064Z,20.85
2018-09-24T02:27:08.362Z,20.84
2018-09-24T02:29:38.040Z,20.97
2018-09-24T02:32:07.839Z,20.83
2018-09-24T02:34:37.086Z,20.94
2018-09-24T02:37:06.323Z,21.03
2018-09-24T02:39:35.369Z,21.04
2018-09-24T02:42:04.805Z,20.98
2018-09-24T02:44:33.875Z,20.87
2018-09-24T02:47:04.352Z,20.74
2018-09-24T02:49:34.034Z,20.89
2018-09-24T02:52:05.010Z,20.85
2018-09-24T02:54:35.729Z,20.76
2018-09-24T02:57:04.791Z,20.81
2018-09-24T02:59:33.825Z,20.77
2018-09-24T03:02:02.871Z,20.84
2018-09-24T03:04:31.908Z,20.71
2018-09-24T03:07:00.927Z,20.56
2018-09-24T03:09:30.986Z,20.34
2018-09-24T03:17:45.001Z,20.44
2018-09-24T03:20:14.700Z,20.35
2018-09-24T03:22:43.726Z,20.30
2018-09-24T03:25:19.689Z,20.24
2018-09-24T03:27:48.824Z,20.26
2018-09-24T03:30:20.042Z,20.18
2018-09-24T03:32:49.907Z,20.23
2018-09-24T03:35:18.996Z,20.35
2018-09-24T03:37:47.985Z,20.27
2018-09-24T03:40:17.065Z,20.20
2018-09-24T03:42:46.093Z,20.24
2018-09-24T03:45:15.093Z,20.03
2018-09-24T03:47:44.444Z,20.03
2018-09-24T03:50:14.101Z,20.03
2018-09-24T03:52:43.288Z,20.02
2018-09-24T03:55:12.421Z,20.05
2018-09-24T03:57:41.941Z,20.12
2018-09-24T04:00:11.110Z,20.23
2018-09-24T04:02:41.988Z,20.33
2018-09-24T04:05:16.121Z,20.75
2018-09-24T04:07:50.498Z,20.92
2018-09-24T04:10:24.752Z,20.65
2018-09-24T04:12:59.366Z,20.44
2018-09-24T04:15:33.437Z,20.57
2018-09-24T04:18:07.604Z,20.40
2018-09-24T04:20:41.761Z,20.42
2018-09-24T04:23:16.065Z,20.40
2018-09-24T04:25:50.139Z,20.41
2018-09-24T04:28:24.198Z,20.83
2018-09-24T04:30:58.160Z,20.79
2018-09-24T04:33:32.557Z,20.41
2018-09-24T04:36:06.689Z,20.16
2018-09-24T04:38:40.956Z,19.99
2018-09-24T04:41:14.881Z,19.64
2018-09-24T04:43:49.041Z,19.45
2018-09-24T04:46:23.135Z,19.44
2018-09-24T04:48:57.588Z,19.50
2018-09-24T04:51:31.745Z,19.39
2018-09-24T04:54:05.814Z,19.51
2018-09-24T04:56:40.006Z,19.58
2018-09-24T04:59:14.441Z,19.53
2018-09-24T05:01:48.527Z,19.31
2018-09-24T05:04:22.787Z,19.46
2018-09-24T05:06:56.969Z,19.38
2018-09-24T05:09:31.520Z,19.44
2018-09-24T05:12:05.575Z,19.17
2018-09-24T05:14:39.525Z,19.16
2018-09-24T05:17:13.701Z,19.43
2018-09-24T05:19:48.071Z,19.46
2018-09-24T05:22:22.240Z,19.59
2018-09-24T05:24:56.320Z,19.61
2018-09-24T05:27:30.353Z,19.59
2018-09-24T05:30:05.534Z,19.50
2018-09-24T05:32:39.528Z,19.58
2018-09-24T05:35:13.707Z,19.75
2018-09-24T05:37:47.719Z,19.85
2018-09-24T05:40:22.109Z,19.82
2018-09-24T05:42:56.800Z,20.44
2018-09-24T05:45:30.829Z,20.68
2018-09-24T05:48:05.016Z,20.49
2018-09-24T05:50:39.384Z,20.49
2018-09-24T05:53:13.513Z,20.65
2018-09-24T05:55:47.728Z,20.57
2018-09-24T05:58:21.816Z,20.77
2018-09-24T06:00:56.150Z,20.63
2018-09-24T06:03:30.294Z,20.98
2018-09-24T06:06:04.322Z,21.34
2018-09-24T06:08:38.424Z,21.33
2018-09-24T06:11:12.931Z,21.02
2018-09-24T06:13:47.470Z,21.07
2018-09-24T06:16:22.066Z,20.69
2018-09-24T06:18:56.816Z,20.58
2018-09-24T06:21:31.314Z,20.37
2018-09-24T06:24:05.328Z,20.87
2018-09-24T06:26:40.307Z,20.86
2018-09-24T06:29:14.434Z,20.94
2018-09-24T06:31:48.655Z,20.78
2018-09-24T06:34:23.488Z,21.38
2018-09-24T06:36:57.620Z,21.48
2018-09-24T06:39:31.811Z,21.60
2018-09-24T06:42:06.166Z,21.42
2018-09-24T06:44:40.368Z,21.38
2018-09-24T06:47:14.595Z,21.99
2018-09-24T06:49:48.645Z,22.10
2018-09-24T06:52:23.090Z,21.93
2018-09-24T06:54:57.281Z,22.45
2018-09-24T06:57:31.772Z,21.77
2018-09-24T07:00:05.948Z,22.01
2018-09-24T07:02:40.465Z,21.89
2018-09-24T07:05:14.442Z,21.90
2018-09-24T07:07:48.667Z,21.73
2018-09-24T07:10:23.456Z,22.50
2018-09-24T07:12:57.715Z,22.71
2018-09-24T07:15:31.714Z,22.53
2018-09-24T07:18:06.650Z,22.48
2018-09-24T07:20:40.732Z,22.72
2018-09-24T07:23:15.071Z,22.25
2018-09-24T07:25:49.732Z,22.66
2018-09-24T07:28:24.303Z,22.54
2018-09-24T07:30:58.419Z,22.69
2018-09-24T07:33:32.622Z,23.12
2018-09-24T07:36:06.640Z,23.23
2018-09-24T07:38:41.157Z,23.12
2018-09-24T07:41:15.185Z,23.03
2018-09-24T07:43:49.714Z,23.60
2018-09-24T07:46:23.666Z,23.69
2018-09-24T07:48:58.245Z,23.57
2018-09-24T07:51:32.402Z,23.94
2018-09-24T07:54:06.647Z,23.55
2018-09-24T07:56:41.379Z,23.36
2018-09-24T07:59:15.666Z,23.18
2018-09-24T08:01:49.800Z,23.49
2018-09-24T08:04:24.257Z,23.83
2018-09-24T08:06:58.397Z,24.53
2018-09-24T08:09:32.785Z,24.01
2018-09-24T08:12:06.894Z,24.00
2018-09-24T08:14:40.909Z,24.04
2018-09-24T08:17:14.869Z,24.24
2018-09-24T08:19:49.245Z,24.24
2018-09-24T08:22:23.301Z,23.91
2018-09-24T08:24:57.723Z,24.38
2018-09-24T08:27:31.690Z,24.55
2018-09-24T08:30:06.296Z,24.44
2018-09-24T08:32:40.437Z,24.48
2018-09-24T08:35:14.969Z,24.71
2018-09-24T08:37:49.058Z,24.77
2018-09-24T08:40:24.014Z,24.73
2018-09-24T08:42:58.295Z,24.70
2018-09-24T08:45:32.874Z,24.81
2018-09-24T08:48:07.569Z,25.30
2018-09-24T08:50:42.824Z,25.19
2018-09-24T08:53:17.005Z,25.54
2018-09-24T08:55:51.454Z,25.86
2018-09-24T08:58:25.556Z,25.83
2018-09-24T09:01:00.079Z,26.00
2018-09-24T09:03:34.278Z,26.34
2018-09-24T09:06:08.854Z,26.37
2018-09-24T09:08:42.980Z,26.13
2018-09-24T09:11:17.042Z,26.65
2018-09-24T09:13:51.255Z,26.33
2018-09-24T09:16:25.513Z,26.43
2018-09-24T09:18:59.611Z,26.39
2018-09-24T09:21:34.145Z,26.90
2018-09-24T09:24:08.395Z,26.25
2018-09-24T09:26:42.495Z,26.74
2018-09-24T09:29:16.690Z,26.84
2018-09-24T09:31:51.198Z,26.50
2018-09-24T09:34:25.592Z,26.74
2018-09-24T09:37:00.152Z,26.74
2018-09-24T09:39:34.280Z,27.16
2018-09-24T09:42:08.782Z,27.13
2018-09-24T09:44:43.258Z,27.41
2018-09-24T09:47:18.255Z,27.24
2018-09-24T09:49:52.408Z,27.19
2018-09-24T09:52:26.569Z,27.09
2018-09-24T09:55:00.735Z,27.38
2018-09-24T09:57:35.211Z,27.08
2018-09-24T10:00:09.355Z,27.77
2018-09-24T10:02:44.002Z,28.17
2018-09-24T10:05:19.145Z,28.46
2018-09-24T10:07:53.321Z,28.09
2018-09-24T10:10:28.311Z,28.17
2018-09-24T10:13:02.734Z,27.91
2018-09-24T10:15:37.696Z,27.92
2018-09-24T10:18:11.811Z,28.09
2018-09-24T10:20:45.887Z,28.68
2018-09-24T10:23:20.440Z,27.77
2018-09-24T10:25:54.588Z,28.40
2018-09-24T10:28:28.678Z,28.60
2018-09-24T10:31:02.953Z,28.46
2018-09-24T10:33:37.319Z,28.91
2018-09-24T10:36:11.547Z,29.08
2018-09-24T10:38:45.956Z,29.02
2018-09-24T10:41:20.165Z,29.08
2018-09-24T10:43:54.598Z,28.91
2018-09-24T10:46:28.784Z,29.19
2018-09-24T10:49:04.189Z,29.45
2018-09-24T10:51:38.359Z,29.15
2018-09-24T10:54:12.784Z,29.48
2018-09-24T10:56:46.879Z,30.29
2018-09-24T10:59:21.401Z,30.20
2018-09-24T11:01:55.557Z,30.09
2018-09-24T11:04:30.362Z,30.49
2018-09-24T11:07:04.331Z,30.10
2018-09-24T11:09:40.739Z,30.08
2018-09-24T11:12:15.699Z,30.31
2018-09-24T11:14:50.307Z,30.51
2018-09-24T11:17:24.386Z,30.61
2018-09-24T11:19:58.736Z,30.35
2018-09-24T11:22:32.731Z,30.07
2018-09-24T11:25:06.952Z,30.59
2018-09-24T11:27:41.073Z,30.86
2018-09-24T11:30:15.567Z,30.89
2018-09-24T11:32:49.781Z,30.97
2018-09-24T11:35:24.087Z,31.34
2018-09-24T11:37:58.084Z,31.82
2018-09-24T11:40:32.115Z,32.08
2018-09-24T11:43:06.121Z,32.58
2018-09-24T11:45:40.473Z,32.02
2018-09-24T11:48:14.454Z,31.96
2018-09-24T11:50:48.581Z,32.07
2018-09-24T11:53:22.648Z,32.14
2018-09-24T11:55:57.047Z,32.17
2018-09-24T11:58:31.088Z,32.16
2018-09-24T12:01:05.205Z,32.53
2018-09-24T12:03:48.087Z,32.65
2018-09-24T12:09:26.349Z,33.03
2018-09-24T12:12:00.501Z,33.05
2018-09-24T12:14:35.076Z,33.14
2018-09-24T12:17:09.334Z,33.44
2018-09-24T12:19:43.912Z,33.67
2018-09-24T12:22:17.920Z,34.26
2018-09-24T12:24:52.455Z,34.33
2018-09-24T12:27:26.456Z,33.42
2018-09-24T12:30:01.007Z,33.83
2018-09-24T12:32:35.931Z,33.44
2018-09-24T12:35:10.437Z,33.30
2018-09-24T12:37:44.469Z,33.25
2018-09-24T12:40:18.669Z,33.74
2018-09-24T12:42:52.879Z,33.63
2018-09-24T12:45:27.145Z,33.46
2018-09-24T12:48:01.267Z,33.71
2018-09-24T12:50:36.862Z,33.35
2018-09-24T12:53:10.889Z,33.59
2018-09-24T12:55:46.883Z,33.25
2018-09-24T12:58:21.617Z,33.20
2018-09-24T13:00:56.006Z,32.87
2018-09-24T13:03:30.388Z,33.02
2018-09-24T13:06:04.581Z,33.38
2018-09-24T13:08:38.776Z,33.53
2018-09-24T13:11:13.245Z,33.49
2018-09-24T13:13:47.447Z,33.13
2018-09-24T13:16:21.879Z,32.95
2018-09-24T13:18:55.856Z,33.24
2018-09-24T13:21:30.084Z,32.85
2018-09-24T13:24:04.970Z,33.04
2018-09-24T13:26:39.217Z,32.97
2018-09-24T13:29:13.365Z,32.95
2018-09-24T13:31:47.645Z,33.10
2018-09-24T13:34:21.790Z,33.30
2018-09-24T13:36:56.115Z,33.25
2018-09-24T13:39:30.415Z,33.41
2018-09-24T13:42:04.534Z,33.67
2018-09-24T13:44:38.819Z,33.47
2018-09-24T13:47:13.404Z,33.62
2018-09-24T13:49:47.487Z,33.43
2018-09-24T13:52:21.984Z,33.35
2018-09-24T13:54:57.002Z,33.30
2018-09-24T13:57:31.258Z,33.60
2018-09-24T14:00:05.754Z,33.53
2018-09-24T14:02:40.125Z,33.62
2018-09-24T14:05:14.265Z,33.48
2018-09-24T14:07:48.482Z,32.95
2018-09-24T14:10:22.690Z,33.00
2018-09-24T14:12:57.362Z,33.14
2018-09-24T14:15:31.515Z,33.44
2018-09-24T14:18:05.857Z,33.64
2018-09-24T14:20:40.175Z,33.67
2018-09-24T14:23:14.370Z,33.11
2018-09-24T14:25:48.508Z,33.11
2018-09-24T14:28:22.619Z,33.14
2018-09-24T14:30:56.802Z,33.02
2018-09-24T14:33:30.975Z,33.08
2018-09-24T14:36:05.343Z,33.05
2018-09-24T14:38:39.771Z,32.85
2018-09-24T14:41:13.951Z,32.70
2018-09-24T14:43:48.213Z,32.96
2018-09-24T14:46:24.074Z,32.63
2018-09-24T14:48:58.672Z,31.38
2018-09-24T14:51:32.757Z,30.23
2018-09-24T14:54:07.026Z,29.29
2018-09-24T14:56:41.088Z,28.22
2018-09-24T14:59:15.737Z,27.59
2018-09-24T15:01:49.809Z,27.34
2018-09-24T15:04:24.045Z,26.98
2018-09-24T15:06:58.249Z,27.00
2018-09-24T15:09:32.770Z,26.67
2018-09-24T15:12:06.748Z,26.50
2018-09-24T15:14:40.759Z,26.08
2018-09-24T15:17:14.700Z,25.68
2018-09-24T15:19:48.876Z,25.42
2018-09-24T15:22:22.859Z,25.21
2018-09-24T15:24:57.642Z,25.31
2018-09-24T15:27:31.779Z,25.33
2018-09-24T15:30:06.231Z,25.16
2018-09-24T15:32:40.623Z,24.98
2018-09-24T15:35:15.020Z,24.78
2018-09-24T15:37:48.954Z,24.51
2018-09-24T15:40:23.234Z,24.36
2018-09-24T15:42:57.474Z,24.27
2018-09-24T15:45:31.659Z,24.36
2018-09-24T15:48:05.656Z,24.10
2018-09-24T15:50:40.710Z,23.88
2018-09-24T15:53:14.737Z,23.85
2018-09-24T15:55:48.980Z,23.79
2018-09-24T15:58:23.125Z,23.74
2018-09-24T16:00:57.630Z,23.76
2018-09-24T16:03:31.793Z,23.78
2018-09-24T16:06:06.037Z,23.66
2018-09-24T16:08:40.245Z,23.52
2018-09-24T16:11:14.316Z,23.47
2018-09-24T16:13:48.339Z,23.25
2018-09-24T16:16:23.156Z,23.09
2018-09-24T16:18:57.294Z,23.02
2018-09-24T16:21:31.778Z,23.22
2018-09-24T16:24:06.242Z,22.90
2018-09-24T16:26:41.154Z,22.79
2018-09-24T16:29:15.171Z,22.65
2018-09-24T16:31:49.620Z,22.69
2018-09-24T16:34:23.923Z,22.51
2018-09-24T16:36:58.302Z,22.46
2018-09-24T16:39:32.421Z,22.37
2018-09-24T16:42:06.732Z,22.14
2018-09-24T16:44:40.722Z,21.87
2018-09-24T16:47:14.978Z,21.86
2018-09-24T16:49:49.120Z,21.77
2018-09-24T16:52:23.221Z,21.70
2018-09-24T16:54:57.278Z,21.51
2018-09-24T16:57:31.797Z,21.26
2018-09-24T17:00:05.902Z,21.37
2018-09-24T17:02:40.127Z,21.44
2018-09-24T17:05:14.453Z,21.67
2018-09-24T17:07:50.196Z,21.80
2018-09-24T17:10:24.369Z,21.78
2018-09-24T17:12:59.044Z,21.46
2018-09-24T17:15:33.092Z,21.35
2018-09-24T17:18:07.712Z,21.28
2018-09-24T17:20:41.905Z,21.19
2018-09-24T17:23:16.131Z,21.16
2018-09-24T17:25:50.325Z,21.01
2018-09-24T17:28:24.668Z,21.23
2018-09-24T17:30:58.768Z,21.12
2018-09-24T17:33:33.142Z,21.07
2018-09-24T17:36:07.266Z,21.05
2018-09-24T17:38:42.178Z,20.94
2018-09-24T17:41:16.206Z,21.01
2018-09-24T17:43:50.396Z,21.02
2018-09-24T17:46:24.604Z,20.84
2018-09-24T17:48:58.710Z,20.70
2018-09-24T17:51:32.803Z,20.74
2018-09-24T17:54:07.756Z,20.50
2018-09-24T17:56:43.491Z,20.45
2018-09-24T17:59:17.738Z,20.36
2018-09-24T18:01:51.836Z,20.32
2018-09-24T18:04:26.161Z,20.28
2018-09-24T18:07:00.480Z,20.32
2018-09-24T18:09:34.693Z,20.25
2018-09-24T18:12:09.510Z,20.23
2018-09-24T18:14:43.625Z,19.92
2018-09-24T18:17:17.784Z,19.81
2018-09-24T18:19:52.131Z,19.78
2018-09-24T18:22:26.588Z,19.79
2018-09-24T18:25:00.864Z,19.53
2018-09-24T18:27:36.110Z,19.54
2018-09-24T18:30:10.730Z,19.64
2018-09-24T18:32:44.870Z,19.53
2018-09-24T18:35:20.882Z,19.47
2018-09-24T18:37:55.134Z,19.16
2018-09-24T18:40:30.911Z,19.25
2018-09-24T18:43:07.499Z,19.10
2018-09-24T18:45:41.764Z,19.11
2018-09-24T18:48:15.867Z,19.02
2018-09-24T18:50:50.350Z,18.95
2018-09-24T18:53:24.411Z,19.05
2018-09-24T18:55:59.069Z,19.12
2018-09-24T18:58:33.236Z,18.97
2018-09-24T19:01:08.107Z,19.01
2018-09-24T19:03:42.116Z,18.92
2018-09-24T19:06:16.812Z,18.88
2018-09-24T19:08:51.323Z,18.88
2018-09-24T19:11:27.966Z,18.82
2018-09-24T19:13:59.967Z,18.75
2018-09-24T19:16:34.154Z,18.81
2018-09-24T19:19:08.334Z,18.87
2018-09-24T19:21:43.114Z,18.88
2018-09-24T19:24:17.692Z,19.11
2018-09-24T19:26:52.165Z,19.10
2018-09-24T19:29:26.411Z,19.00
2018-09-24T19:32:00.974Z,18.79
2018-09-24T19:34:35.651Z,18.58
2018-09-24T19:37:10.308Z,18.50
2018-09-24T19:39:44.512Z,18.42
2018-09-24T19:42:19.704Z,18.46
2018-09-24T19:44:53.945Z,18.39
2018-09-24T19:47:28.614Z,18.38
2018-09-24T19:50:02.743Z,18.34
2018-09-24T19:52:37.285Z,18.36
2018-09-24T19:55:11.626Z,18.41
2018-09-24T19:57:45.995Z,18.38
2018-09-24T20:00:20.010Z,18.29
2018-09-24T20:02:55.248Z,18.23
2018-09-24T20:05:29.227Z,18.15
2018-09-24T20:08:03.831Z,18.09
2018-09-24T20:10:37.920Z,17.93
2018-09-24T20:13:12.122Z,17.92
2018-09-24T20:15:47.257Z,17.79
2018-09-24T20:18:21.767Z,17.75
2018-09-24T20:20:56.020Z,17.66
2018-09-24T20:23:30.364Z,17.77
2018-09-24T20:26:04.699Z,17.81
2018-09-24T20:28:39.255Z,17.67
2018-09-24T20:31:13.542Z,17.67
2018-09-24T20:33:47.781Z,17.52
2018-09-24T20:36:21.954Z,17.57
2018-09-24T20:38:56.650Z,17.63
2018-09-24T20:41:30.877Z,17.59
2018-09-24T20:44:05.063Z,17.49
2018-09-24T20:46:39.252Z,17.62
2018-09-24T20:49:13.697Z,17.51
2018-09-24T20:51:47.973Z,17.43
2018-09-24T20:54:22.124Z,17.29
2018-09-24T20:56:56.214Z,17.19
2018-09-24T20:59:30.551Z,17.30
2018-09-24T21:02:04.684Z,17.14
2018-09-24T21:04:38.773Z,16.99
2018-09-24T21:07:12.916Z,16.83
2018-09-24T21:09:47.385Z,16.88
2018-09-24T21:12:21.508Z,16.74
2018-09-24T21:14:55.680Z,16.76
2018-09-24T21:17:30.102Z,16.81
2018-09-24T21:20:04.565Z,16.67
2018-09-24T21:22:38.503Z,16.70
2018-09-24T21:25:12.660Z,16.52
2018-09-24T21:27:46.715Z,16.54
2018-09-24T21:30:21.207Z,16.59
2018-09-24T21:32:55.209Z,16.53
2018-09-24T21:35:29.264Z,16.51
2018-09-24T21:38:03.242Z,16.55
2018-09-24T21:40:37.646Z,16.65
2018-09-24T21:43:11.573Z,16.52
2018-09-24T21:45:45.808Z,16.57
2018-09-24T21:48:19.946Z,16.52
2018-09-24T21:50:54.399Z,16.72
2018-09-24T21:53:28.542Z,16.52
2018-09-24T21:56:02.811Z,16.55
2018-09-24T21:58:36.782Z,16.43
2018-09-24T22:01:11.332Z,16.34
2018-09-24T22:03:45.480Z,16.33
2018-09-24T22:06:19.830Z,16.27
2018-09-24T22:08:53.970Z,16.41
2018-09-24T22:11:28.013Z,16.35
2018-09-24T22:14:01.926Z,16.28
2018-09-24T22:16:36.127Z,16.12
2018-09-24T22:19:10.241Z,16.11
2018-09-24T22:21:44.401Z,15.82
2018-09-24T22:24:18.339Z,15.78
2018-09-24T22:26:52.672Z,15.66
2018-09-24T22:29:26.794Z,15.57
2018-09-24T22:32:01.121Z,15.56
2018-09-24T22:34:35.290Z,15.60
2018-09-24T22:37:09.609Z,15.47
2018-09-24T22:39:43.721Z,15.42
2018-09-24T22:42:18.002Z,15.37
2018-09-24T22:44:52.089Z,15.28
2018-09-24T22:47:26.411Z,15.33
2018-09-24T22:50:00.551Z,15.25
2018-09-24T22:52:34.807Z,15.22
2018-09-24T22:55:08.899Z,15.14
2018-09-24T22:57:43.053Z,15.06
2018-09-24T23:00:17.030Z,15.05
2018-09-24T23:02:51.378Z,15.11
2018-09-24T23:05:25.441Z,15.11
2018-09-24T23:07:59.581Z,15.10
2018-09-24T23:10:33.761Z,14.93
2018-09-24T23:13:08.153Z,15.03
2018-09-24T23:15:42.229Z,15.04
2018-09-24T23:18:16.389Z,15.05
2018-09-24T23:20:50.373Z,14.96
2018-09-24T23:23:24.711Z,14.99
2018-09-24T23:25:58.837Z,14.91
2018-09-24T23:28:33.246Z,14.76
2018-09-24T23:31:07.299Z,14.76
2018-09-24T23:33:41.402Z,14.77
2018-09-24T23:36:15.338Z,14.60
2018-09-24T23:38:49.790Z,14.69
2018-09-24T23:41:23.729Z,14.62
2018-09-24T23:43:58.039Z,14.60
2018-09-24T23:46:31.971Z,14.62
2018-09-24T23:49:06.160Z,14.40
2018-09-24T23:51:40.161Z,14.53
2018-09-24T23:54:14.560Z,14.38
2018-09-24T23:56:48.513Z,14.14
2018-09-24T23:59:22.910Z,14.06
